LPAZ/SMA METAR and TAF weather

Enter ICAO airport designator
Station Type Date Time Source
LPAZ METAR 2021/02/27 09:00 UTC NOAA

LPAZ 270900Z 24006KT 9999 FEW018 15/13 Q1029


Station Type Date Time Source
LPAZ Decoded METAR 2021/02/27 09:00 UTC NOAA

Santa Maria Acores , Portugal (LPAZ) 36-58N 025-10W 100M
Feb 27, 2021 - 04:00 AM EST / 2021.02.27 0900 UTC
Wind: from the WSW (240 degrees) at 7 MPH (6 KT):0
Visibility: greater than 7 mile(s):0
Sky conditions: mostly clear
Temperature: 59 F (15 C)
Dew Point: 55 F (13 C)
Relative Humidity: 87%
Pressure (altimeter): 30.39 in. Hg (1029 hPa)
ob: LPAZ 270900Z 24006KT 9999 FEW018 15/13 Q1029
cycle: 9

Station Type Date Time Source
LPAZ TAF 2021/02/27 06:18 UTC NOAA

TAF TAF LPAZ 270500Z 2706/2812 25005KT 9999 SCT012 SCT040 PROB30
TEMPO 2706/2710 5000 -DZ BR SCT006 BKN012
BECMG 2710/2713 29008KT
BECMG 2718/2721 VRB05KT
BECMG 2804/2806 19008KT

Example: see airport list